This is the latest recevied weather packets stored in our database for station/object KB8TTR. If no packets are shown the sender has not sent any weather packets the latest 10 day(s).
| Time | Temp. | Humidity | Pressure | Rain* | Wind** | Luminosity | Snow |
|---|---|---|---|---|---|---|---|
| 1788539563 | 21.67° C | 97% | 1020.4 hPa | 1.78 mm | - | 30 W/m² | - |
| 1788539262 | 22.22° C | 97% | 1020.2 hPa | 1.27 mm | - | 27 W/m² | - |
| 1788538957 | 22.22° C | 97% | 1020.1 hPa | 3.05 mm | - | 50 W/m² | - |
| 1788538653 | 22.22° C | 97% | 1019.5 hPa | 1.78 mm | - | 73 W/m² | - |
| 1788538352 | 22.22° C | 97% | 1019.5 hPa | 0 mm | - | 39 W/m² | - |
| 1788538048 | 22.22° C | 96% | 1019.3 hPa | 0 mm | - | 65 W/m² | - |
| 1788537744 | 22.22° C | 96% | 1018.6 hPa | 1.27 mm | - | 103 W/m² | - |
| 1788537443 | 22.22° C | 96% | 1018.7 hPa | 1.27 mm | - | 95 W/m² | - |
| 1788537143 | 22.22° C | 96% | 1018.7 hPa | 1.27 mm | - | 120 W/m² | - |
| 1788536842 | 22.22° C | 96% | 1018.7 hPa | 0 mm | - | 90 W/m² | - |
| 1788536542 | 22.22° C | 96% | 1018.8 hPa | 1.78 mm | - | 60 W/m² | - |
| 1788536237 | 21.67° C | 96% | 1018.6 hPa | 1.78 mm | - | 51 W/m² | - |
| 1788535933 | 21.67° C | 96% | 1018.7 hPa | 0 mm | - | 42 W/m² | - |
| 1788535629 | 22.22° C | 97% | 1018.9 hPa | 0 mm | - | 46 W/m² | - |
| 1788535324 | 22.22° C | 97% | 1019.1 hPa | 0 mm | - | 58 W/m² | - |
| 1788535019 | 22.22° C | 98% | 1018.9 hPa | 0 mm | - | 65 W/m² | - |
| 1788534718 | 22.22° C | 98% | 1019 hPa | 0 mm | - | 62 W/m² | - |
| 1788534414 | 22.22° C | 99% | 1019.1 hPa | 0 mm | - | 53 W/m² | - |
| 1788534109 | 22.22° C | 99% | 1019.4 hPa | 0 mm | - | 56 W/m² | - |
| 1788533808 | 22.22° C | 99% | 1019.4 hPa | 0 mm | - | 57 W/m² | - |
| 1788533503 | 22.22° C | 99% | 1019.7 hPa | 0 mm | - | 51 W/m² | - |
| 1788533198 | 22.22° C | 99% | 1019.4 hPa | 0 mm | - | 53 W/m² | - |
| 1788532894 | 22.22° C | 99% | 1019.2 hPa | 0 mm | - | 73 W/m² | - |
| 1788532590 | 22.22° C | 99% | 1018.9 hPa | 0 mm | - | 82 W/m² | - |
| 1788532286 | 22.22° C | 99% | 1018.4 hPa | 0 mm | - | 141 W/m² | - |
* Rain latest hour (hover to see other rain measurements)
** Current wind speed in m/s (hover to see current wind gust speed)